createdAt,value
2023-09-17T00:01:39.580Z,12.63
2023-09-17T00:04:06.047Z,12.80
2023-09-17T00:06:32.490Z,13.88
2023-09-17T00:08:58.920Z,12.13
2023-09-17T00:11:25.241Z,13.00
2023-09-17T00:13:51.810Z,12.80
2023-09-17T00:16:18.421Z,13.18
2023-09-17T00:18:44.851Z,13.27
2023-09-17T00:21:11.207Z,12.45
2023-09-17T00:23:37.624Z,12.68
2023-09-17T00:26:04.047Z,12.57
2023-09-17T00:28:30.472Z,13.43
2023-09-17T00:30:56.926Z,13.27
2023-09-17T00:33:23.638Z,12.00
2023-09-17T00:35:50.032Z,12.52
2023-09-17T00:38:16.404Z,13.25
2023-09-17T00:40:42.756Z,12.20
2023-09-17T00:43:09.182Z,12.93
2023-09-17T00:45:35.520Z,13.80
2023-09-17T00:48:02.134Z,13.30
2023-09-17T00:50:28.564Z,12.90
2023-09-17T00:52:54.945Z,13.20
2023-09-17T00:55:21.332Z,13.32
2023-09-17T00:57:47.762Z,16.33
2023-09-17T01:00:14.118Z,13.90
2023-09-17T01:02:40.676Z,12.25
2023-09-17T01:05:07.275Z,12.70
2023-09-17T01:07:33.737Z,16.75
2023-09-17T01:10:00.107Z,13.52
2023-09-17T01:12:26.555Z,13.43
2023-09-17T01:14:52.915Z,13.38
2023-09-17T01:17:19.322Z,13.15
2023-09-17T01:19:45.696Z,13.63
2023-09-17T01:22:12.149Z,13.02
2023-09-17T01:24:38.573Z,13.20
2023-09-17T01:27:05.064Z,14.52
2023-09-17T01:29:31.540Z,13.90
2023-09-17T01:31:57.963Z,14.45
2023-09-17T01:34:24.361Z,13.55
2023-09-17T01:36:50.749Z,13.23
2023-09-17T01:39:17.169Z,14.77
2023-09-17T01:41:43.567Z,13.75
2023-09-17T01:44:09.962Z,13.43
2023-09-17T01:46:36.419Z,14.40
2023-09-17T01:49:02.821Z,13.82
2023-09-17T01:51:29.164Z,13.50
2023-09-17T01:53:55.585Z,12.93
2023-09-17T01:56:21.974Z,13.35
2023-09-17T01:58:48.432Z,12.20
2023-09-17T02:01:14.936Z,12.55
2023-09-17T02:03:41.481Z,12.95
2023-09-17T02:06:07.928Z,11.75
2023-09-17T02:08:34.310Z,12.85
2023-09-17T02:11:00.722Z,11.98
2023-09-17T02:13:27.148Z,12.23
2023-09-17T02:15:53.586Z,12.82
2023-09-17T02:18:19.975Z,13.07
2023-09-17T02:20:46.367Z,13.82
2023-09-17T02:23:12.747Z,11.18
2023-09-17T02:25:39.077Z,12.48
2023-09-17T02:28:05.540Z,12.35
2023-09-17T02:30:31.898Z,12.35
2023-09-17T02:32:58.326Z,12.63
2023-09-17T02:35:24.736Z,12.18
2023-09-17T02:37:51.113Z,12.00
2023-09-17T02:40:17.536Z,12.27
2023-09-17T02:42:43.919Z,12.43
2023-09-17T02:45:10.501Z,11.35
2023-09-17T02:47:37.147Z,12.45
2023-09-17T02:50:03.674Z,12.15
2023-09-17T02:52:30.092Z,12.15
2023-09-17T02:54:56.503Z,12.48
2023-09-17T02:57:22.885Z,13.85
2023-09-17T02:59:49.267Z,12.77
2023-09-17T03:02:15.714Z,11.95
2023-09-17T03:04:42.169Z,12.85
2023-09-17T03:07:08.595Z,12.45
2023-09-17T03:09:34.957Z,12.55
2023-09-17T03:12:01.311Z,12.63
2023-09-17T03:14:27.753Z,14.07
2023-09-17T03:16:54.247Z,12.10
2023-09-17T03:19:20.742Z,15.88
2023-09-17T03:21:47.180Z,13.10
2023-09-17T03:24:13.541Z,13.75
2023-09-17T03:26:39.879Z,12.52
2023-09-17T03:29:06.371Z,13.07
2023-09-17T03:31:32.866Z,14.88
2023-09-17T03:33:59.252Z,12.90
2023-09-17T03:36:25.571Z,12.90
2023-09-17T03:38:51.955Z,12.07
2023-09-17T03:41:18.341Z,15.35
2023-09-17T03:43:44.737Z,11.90
2023-09-17T03:46:11.224Z,10.75
2023-09-17T03:48:37.677Z,11.30
2023-09-17T03:51:04.195Z,12.32
2023-09-17T03:53:30.527Z,12.35
2023-09-17T03:55:56.938Z,11.65
2023-09-17T03:58:23.343Z,12.43
2023-09-17T04:00:49.781Z,11.95
2023-09-17T04:03:16.382Z,11.90
2023-09-17T04:05:42.812Z,13.02
2023-09-17T04:08:09.229Z,12.23
2023-09-17T04:10:35.648Z,11.95
2023-09-17T04:13:02.111Z,11.52
2023-09-17T04:15:28.491Z,12.10
2023-09-17T04:17:54.912Z,12.50
2023-09-17T04:20:21.295Z,11.50
2023-09-17T04:22:47.697Z,11.73
2023-09-17T04:25:14.049Z,12.18
2023-09-17T04:27:40.439Z,11.95
2023-09-17T04:30:08.585Z,11.90
2023-09-17T04:32:35.395Z,11.50
2023-09-17T04:35:01.874Z,11.23
2023-09-17T04:37:28.235Z,11.65
2023-09-17T04:39:54.576Z,11.48
2023-09-17T04:42:20.945Z,11.68
2023-09-17T04:44:47.294Z,10.65
2023-09-17T04:47:13.669Z,11.75
2023-09-17T04:49:40.078Z,10.90
2023-09-17T04:52:06.481Z,11.23
2023-09-17T04:54:32.855Z,13.45
2023-09-17T04:56:59.307Z,11.10
2023-09-17T04:59:25.680Z,9.82
2023-09-17T05:01:52.165Z,13.25
2023-09-17T05:04:18.646Z,10.38
2023-09-17T05:06:45.011Z,12.27
2023-09-17T05:09:11.409Z,12.90
2023-09-17T05:11:37.794Z,11.95
2023-09-17T05:14:04.145Z,9.93
2023-09-17T05:16:30.610Z,11.38
2023-09-17T05:18:57.036Z,14.13
2023-09-17T05:21:23.493Z,10.80
2023-09-17T05:23:49.976Z,11.52
2023-09-17T05:26:16.578Z,10.80
2023-09-17T05:28:43.093Z,10.88
2023-09-17T05:31:09.564Z,11.20
2023-09-17T05:33:35.941Z,16.45
2023-09-17T05:36:02.326Z,10.38
2023-09-17T05:38:28.688Z,10.60
2023-09-17T05:40:55.118Z,10.15
2023-09-17T05:43:21.523Z,10.77
2023-09-17T05:45:47.939Z,9.95
2023-09-17T05:48:14.345Z,10.13
2023-09-17T05:50:40.772Z,10.32
2023-09-17T05:53:07.181Z,9.27
2023-09-17T05:55:33.631Z,9.07
2023-09-17T05:58:00.016Z,8.13
2023-09-17T06:00:26.384Z,9.07
2023-09-17T06:02:52.839Z,8.65
2023-09-17T06:05:19.279Z,9.55
2023-09-17T06:07:45.740Z,8.38
2023-09-17T06:10:12.172Z,7.82
2023-09-17T06:12:38.600Z,8.93
2023-09-17T06:15:04.993Z,8.98
2023-09-17T06:17:31.415Z,9.30
2023-09-17T06:19:57.913Z,8.25
2023-09-17T06:22:24.448Z,8.93
2023-09-17T06:24:53.900Z,8.27
2023-09-17T06:27:20.316Z,9.00
2023-09-17T06:29:46.757Z,10.45
2023-09-17T06:32:13.161Z,9.80
2023-09-17T06:34:39.584Z,10.07
2023-09-17T06:37:05.996Z,10.95
2023-09-17T06:39:32.392Z,9.65
2023-09-17T06:41:58.821Z,11.98
2023-09-17T06:44:25.316Z,9.95
2023-09-17T06:46:51.785Z,10.63
2023-09-17T06:49:18.280Z,8.63
2023-09-17T06:51:44.682Z,8.70
2023-09-17T06:54:11.047Z,8.82
2023-09-17T06:56:37.533Z,8.90
2023-09-17T06:59:04.020Z,8.57
2023-09-17T07:01:30.509Z,8.98
2023-09-17T07:03:57.013Z,11.38
2023-09-17T07:06:23.363Z,9.48
2023-09-17T07:08:49.919Z,7.45
2023-09-17T07:11:16.289Z,12.57
2023-09-17T07:13:42.718Z,6.05
2023-09-17T07:16:09.143Z,5.95
2023-09-17T07:18:35.645Z,7.50
2023-09-17T07:21:02.085Z,6.75
2023-09-17T07:23:28.464Z,6.70
2023-09-17T07:25:54.888Z,6.07
2023-09-17T07:28:21.285Z,5.65
2023-09-17T07:30:47.772Z,6.75
2023-09-17T07:33:15.875Z,7.55
2023-09-17T07:35:42.350Z,5.38
2023-09-17T07:38:08.742Z,5.65
2023-09-17T07:40:35.240Z,5.93
2023-09-17T07:43:01.685Z,5.90
2023-09-17T07:45:28.101Z,6.05
2023-09-17T07:47:54.517Z,5.95
2023-09-17T07:50:20.959Z,6.35
2023-09-17T07:52:47.424Z,6.32
2023-09-17T07:55:13.858Z,6.45
2023-09-17T07:57:40.337Z,5.07
2023-09-17T08:00:06.757Z,20.52
2023-09-17T08:02:33.294Z,5.50
2023-09-17T08:04:59.972Z,6.30
2023-09-17T08:07:26.465Z,5.75
2023-09-17T08:09:52.913Z,6.82
2023-09-17T08:12:19.365Z,7.00
2023-09-17T08:14:45.765Z,8.02
2023-09-17T08:17:12.260Z,6.35
2023-09-17T08:19:38.796Z,7.85
2023-09-17T08:22:05.264Z,6.65
2023-09-17T08:24:31.697Z,5.95
2023-09-17T08:26:58.132Z,11.52
2023-09-17T08:29:24.587Z,6.40
2023-09-17T08:31:51.103Z,6.97
2023-09-17T08:34:18.265Z,6.05
2023-09-17T08:36:45.452Z,6.50
2023-09-17T08:39:11.925Z,8.48
2023-09-17T08:41:38.324Z,7.05
2023-09-17T08:44:04.815Z,5.65
2023-09-17T08:46:31.313Z,5.45
2023-09-17T08:48:57.895Z,10.23
2023-09-17T08:51:24.249Z,7.22
2023-09-17T08:53:50.918Z,6.75
2023-09-17T08:56:17.429Z,5.75
2023-09-17T08:58:43.798Z,5.05
2023-09-17T09:01:10.182Z,5.75
2023-09-17T09:03:36.706Z,7.95
2023-09-17T09:06:03.357Z,5.47
2023-09-17T09:08:29.693Z,6.03
2023-09-17T09:10:56.096Z,5.45
2023-09-17T09:13:22.489Z,4.80
2023-09-17T09:15:48.951Z,5.15
2023-09-17T09:18:15.380Z,4.85
2023-09-17T09:20:41.751Z,5.53
2023-09-17T09:23:08.190Z,5.43
2023-09-17T09:25:34.578Z,5.43
2023-09-17T09:28:00.938Z,8.57
2023-09-17T09:30:27.314Z,4.85
2023-09-17T09:32:53.782Z,5.78
2023-09-17T09:35:20.198Z,4.40
2023-09-17T09:37:46.582Z,4.80
2023-09-17T09:40:13.038Z,4.15
2023-09-17T09:42:39.451Z,7.65
2023-09-17T09:45:05.903Z,6.10
2023-09-17T09:47:32.289Z,6.05
2023-09-17T09:49:58.707Z,5.25
2023-09-17T09:52:25.160Z,5.72
2023-09-17T09:54:51.546Z,5.57
2023-09-17T09:57:17.964Z,10.10
2023-09-17T09:59:44.332Z,4.88
2023-09-17T10:02:10.745Z,5.22
2023-09-17T10:04:37.176Z,4.35
2023-09-17T10:07:03.611Z,7.07
2023-09-17T10:09:30.469Z,4.65
2023-09-17T10:11:56.846Z,4.18
2023-09-17T10:14:23.257Z,21.15
2023-09-17T10:16:49.665Z,9.68
2023-09-17T10:19:19.130Z,8.80
2023-09-17T10:21:45.534Z,6.28
2023-09-17T10:24:11.888Z,6.72
2023-09-17T10:26:38.308Z,5.43
2023-09-17T10:29:04.774Z,5.45
2023-09-17T10:31:31.279Z,5.40
2023-09-17T10:33:57.708Z,5.40
2023-09-17T10:36:24.121Z,6.68
2023-09-17T10:38:50.568Z,10.85
2023-09-17T10:41:17.009Z,6.07
2023-09-17T10:43:43.441Z,7.53
2023-09-17T10:46:09.903Z,8.40
2023-09-17T10:48:36.279Z,6.38
2023-09-17T10:51:02.683Z,5.65
2023-09-17T10:53:29.077Z,6.60
2023-09-17T10:55:55.609Z,7.07
2023-09-17T10:58:22.021Z,9.52
2023-09-17T11:00:48.466Z,8.60
2023-09-17T11:03:14.965Z,8.63
2023-09-17T11:05:41.412Z,7.25
2023-09-17T11:08:07.844Z,7.22
2023-09-17T11:10:34.351Z,7.63
2023-09-17T11:13:00.787Z,11.82
2023-09-17T11:15:27.192Z,5.07
2023-09-17T11:17:53.704Z,5.82
2023-09-17T11:20:20.305Z,6.57
2023-09-17T11:22:46.750Z,7.40
2023-09-17T11:25:13.181Z,6.43
2023-09-17T11:27:39.611Z,8.15
2023-09-17T11:30:06.093Z,8.98
2023-09-17T11:32:32.510Z,8.13
2023-09-17T11:34:58.935Z,6.50
2023-09-17T11:37:25.351Z,4.93
2023-09-17T11:39:51.723Z,13.02
2023-09-17T11:42:18.101Z,9.40
2023-09-17T11:44:44.589Z,7.63
2023-09-17T11:47:11.130Z,11.85
2023-09-17T11:49:37.612Z,4.50
2023-09-17T11:52:04.091Z,6.18
2023-09-17T11:54:30.543Z,6.63
2023-09-17T11:56:56.926Z,6.45
2023-09-17T11:59:23.345Z,5.65
2023-09-17T12:01:49.727Z,4.45
2023-09-17T12:04:16.191Z,8.30
2023-09-17T12:06:42.699Z,5.30
2023-09-17T12:09:09.096Z,6.93
2023-09-17T12:11:35.537Z,5.63
2023-09-17T12:14:02.031Z,4.78
2023-09-17T12:16:28.476Z,6.40
2023-09-17T12:19:03.661Z,6.80
2023-09-17T12:21:41.331Z,6.63
2023-09-17T12:24:07.807Z,5.53
2023-09-17T12:26:34.206Z,7.78
2023-09-17T12:29:00.573Z,11.05
2023-09-17T12:31:26.946Z,9.75
2023-09-17T12:33:53.609Z,11.35
2023-09-17T12:36:20.129Z,8.18
2023-09-17T12:38:46.508Z,6.00
2023-09-17T12:41:12.942Z,7.95
2023-09-17T12:43:39.427Z,5.65
2023-09-17T12:46:05.892Z,6.80
2023-09-17T12:48:32.337Z,5.35
2023-09-17T12:51:01.631Z,7.57
2023-09-17T12:53:28.500Z,7.53
2023-09-17T12:55:54.860Z,7.57
2023-09-17T12:58:21.321Z,7.88
2023-09-17T13:00:48.338Z,8.50
2023-09-17T13:03:14.931Z,9.48
2023-09-17T13:05:41.317Z,15.70
2023-09-17T13:08:07.912Z,6.60
2023-09-17T13:10:34.343Z,5.38
2023-09-17T13:13:00.745Z,9.73
2023-09-17T13:15:27.190Z,6.65
2023-09-17T13:17:53.603Z,6.97
2023-09-17T13:20:19.997Z,7.25
2023-09-17T13:22:46.411Z,7.60
2023-09-17T13:25:12.856Z,5.47
2023-09-17T13:27:39.273Z,8.35
2023-09-17T13:30:05.888Z,4.15
2023-09-17T13:32:32.467Z,10.65
2023-09-17T13:34:59.141Z,5.82
2023-09-17T13:37:25.581Z,7.95
2023-09-17T13:39:51.930Z,8.18
2023-09-17T13:42:18.290Z,8.75
2023-09-17T13:44:44.647Z,7.72
2023-09-17T13:47:11.088Z,9.25
2023-09-17T13:49:38.188Z,10.38
2023-09-17T13:52:04.771Z,5.68
2023-09-17T13:54:31.195Z,6.70
2023-09-17T13:56:57.518Z,8.65
2023-09-17T13:59:23.885Z,6.72
2023-09-17T14:01:50.333Z,7.10
2023-09-17T14:04:16.727Z,6.80
2023-09-17T14:06:43.148Z,8.30
2023-09-17T14:09:09.540Z,5.15
2023-09-17T14:11:35.901Z,5.90
2023-09-17T14:14:02.288Z,6.53
2023-09-17T14:16:28.675Z,6.35
2023-09-17T14:18:55.017Z,9.73
2023-09-17T14:21:21.425Z,7.82
2023-09-17T14:23:47.867Z,5.75
2023-09-17T14:26:14.264Z,6.93
2023-09-17T14:28:40.719Z,6.82
2023-09-17T14:31:07.165Z,11.70
2023-09-17T14:33:33.680Z,4.97
2023-09-17T14:36:00.158Z,6.15
2023-09-17T14:38:26.565Z,5.60
2023-09-17T14:40:52.929Z,6.13
2023-09-17T14:43:19.299Z,6.38
2023-09-17T14:45:45.652Z,5.68
2023-09-17T14:48:12.047Z,5.10
2023-09-17T14:50:38.477Z,7.60
2023-09-17T14:53:04.902Z,4.32
2023-09-17T14:55:31.441Z,4.47
2023-09-17T14:57:57.830Z,4.60
2023-09-17T15:00:24.199Z,3.35
2023-09-17T15:02:50.776Z,4.88
2023-09-17T15:05:17.352Z,4.45
2023-09-17T15:07:43.796Z,3.90
2023-09-17T15:10:10.213Z,4.68
2023-09-17T15:12:36.626Z,6.63
2023-09-17T15:15:03.048Z,4.78
2023-09-17T15:17:29.635Z,4.18
2023-09-17T15:19:56.093Z,4.32
2023-09-17T15:22:22.509Z,16.98
2023-09-17T15:24:48.880Z,10.82
2023-09-17T15:27:15.266Z,6.93
2023-09-17T15:29:41.666Z,3.33
2023-09-17T15:32:08.033Z,18.13
2023-09-17T15:34:34.551Z,7.22
2023-09-17T15:37:01.038Z,4.60
2023-09-17T15:39:27.449Z,5.05
2023-09-17T15:41:53.828Z,5.60
2023-09-17T15:44:20.236Z,5.75
2023-09-17T15:46:46.831Z,7.22
2023-09-17T15:49:13.324Z,6.18
2023-09-17T15:51:39.690Z,3.53
2023-09-17T15:54:06.093Z,8.77
2023-09-17T15:56:32.572Z,5.95
2023-09-17T15:58:59.029Z,6.22
2023-09-17T16:01:25.475Z,6.07
2023-09-17T16:03:51.986Z,7.65
2023-09-17T16:06:18.455Z,5.43
2023-09-17T16:08:44.840Z,5.32
2023-09-17T16:11:11.243Z,4.18
2023-09-17T16:13:37.656Z,5.03
2023-09-17T16:16:04.123Z,5.97
2023-09-17T16:18:30.517Z,8.18
2023-09-17T16:20:56.959Z,5.28
2023-09-17T16:23:23.317Z,12.02
2023-09-17T16:25:49.723Z,7.60
2023-09-17T16:28:16.216Z,9.30
2023-09-17T16:30:42.578Z,6.93
2023-09-17T16:33:09.076Z,5.85
2023-09-17T16:35:35.569Z,4.70
2023-09-17T16:38:01.976Z,5.07
2023-09-17T16:40:28.386Z,6.75
2023-09-17T16:43:07.261Z,5.07
2023-09-17T16:45:36.016Z,7.03
2023-09-17T16:48:02.443Z,5.05
2023-09-17T16:50:29.849Z,5.55
2023-09-17T16:52:56.639Z,4.93
2023-09-17T16:55:23.145Z,3.85
2023-09-17T16:57:49.577Z,5.00
2023-09-17T17:00:15.967Z,8.95
2023-09-17T17:02:42.510Z,3.83
2023-09-17T17:05:09.066Z,5.15
2023-09-17T17:07:35.633Z,6.47
2023-09-17T17:10:01.975Z,5.65
2023-09-17T17:12:28.397Z,9.40
2023-09-17T17:14:54.823Z,3.67
2023-09-17T17:17:21.316Z,10.90
2023-09-17T17:19:47.768Z,7.35
2023-09-17T17:22:14.149Z,7.03
2023-09-17T17:24:40.503Z,5.70
2023-09-17T17:27:07.042Z,7.50
2023-09-17T17:29:33.416Z,6.13
2023-09-17T17:31:59.776Z,4.50
2023-09-17T17:34:26.535Z,6.82
2023-09-17T17:36:52.918Z,5.90
2023-09-17T17:39:19.337Z,5.72
2023-09-17T17:41:45.703Z,7.65
2023-09-17T17:44:12.172Z,6.13
2023-09-17T17:46:38.600Z,4.93
2023-09-17T17:49:04.958Z,10.70
2023-09-17T17:51:31.358Z,4.78
2023-09-17T17:53:57.747Z,6.13
2023-09-17T17:56:24.145Z,5.43
2023-09-17T17:58:51.149Z,7.22
2023-09-17T18:01:18.102Z,5.30
2023-09-17T18:03:44.676Z,3.88
2023-09-17T18:06:11.284Z,4.78
2023-09-17T18:08:38.049Z,6.00
2023-09-17T18:11:04.580Z,4.47
2023-09-17T18:13:31.318Z,5.25
2023-09-17T18:15:58.270Z,6.57
2023-09-17T18:18:24.823Z,7.28
2023-09-17T18:20:51.222Z,8.35
2023-09-17T18:23:17.594Z,5.38
2023-09-17T18:25:44.166Z,5.18
2023-09-17T18:28:10.660Z,6.35
2023-09-17T18:30:37.215Z,5.60
2023-09-17T18:33:04.162Z,3.70
2023-09-17T18:35:31.002Z,6.78
2023-09-17T18:37:57.883Z,5.32
2023-09-17T18:40:25.047Z,9.20
2023-09-17T18:42:52.045Z,6.40
2023-09-17T18:45:18.786Z,11.75
2023-09-17T18:47:46.177Z,6.28
2023-09-17T18:50:13.069Z,7.45
2023-09-17T18:52:40.048Z,6.55
2023-09-17T18:55:06.622Z,6.97
2023-09-17T18:57:33.398Z,5.50
2023-09-17T19:00:00.522Z,5.43
2023-09-17T19:02:27.550Z,6.45
2023-09-17T19:04:55.230Z,4.10
2023-09-17T19:07:22.756Z,4.05
2023-09-17T19:09:49.620Z,6.47
2023-09-17T19:12:16.402Z,6.30
2023-09-17T19:14:43.343Z,4.50
2023-09-17T19:17:10.426Z,5.10
2023-09-17T19:19:37.534Z,6.32
2023-09-17T19:22:04.364Z,4.75
2023-09-17T19:24:31.241Z,5.20
2023-09-17T19:26:58.464Z,5.20
2023-09-17T19:29:25.668Z,4.10
2023-09-17T19:31:52.285Z,5.60
2023-09-17T19:34:18.746Z,4.40
2023-09-17T19:36:45.113Z,4.60
2023-09-17T19:39:12.004Z,6.65
2023-09-17T19:41:38.422Z,4.90
2023-09-17T19:44:05.104Z,8.18
2023-09-17T19:46:31.877Z,5.25
2023-09-17T19:48:58.918Z,5.63
2023-09-17T19:51:25.726Z,5.50
2023-09-17T19:53:52.835Z,6.03
2023-09-17T19:56:19.965Z,5.80
2023-09-17T19:58:46.728Z,5.72
2023-09-17T20:01:13.620Z,5.13
2023-09-17T20:03:40.338Z,5.00
2023-09-17T20:06:06.802Z,6.00
2023-09-17T20:08:33.517Z,7.43
2023-09-17T20:11:00.410Z,4.72
2023-09-17T20:13:27.315Z,4.68
2023-09-17T20:15:54.220Z,7.18
2023-09-17T20:18:21.179Z,5.07
2023-09-17T20:20:48.313Z,6.57
2023-09-17T20:23:14.816Z,8.10
2023-09-17T20:25:41.622Z,5.32
2023-09-17T20:28:08.553Z,7.25
2023-09-17T20:30:35.654Z,5.60
2023-09-17T20:33:02.408Z,8.05
2023-09-17T20:35:29.091Z,6.53
2023-09-17T20:37:56.081Z,7.53
2023-09-17T20:40:23.003Z,8.80
2023-09-17T20:42:49.777Z,6.32
2023-09-17T20:45:16.594Z,5.63
2023-09-17T20:47:43.157Z,9.93
2023-09-17T20:50:09.608Z,5.78
2023-09-17T20:52:35.997Z,6.22
2023-09-17T20:55:02.812Z,5.63
2023-09-17T20:57:29.456Z,6.40
2023-09-17T20:59:56.196Z,5.80
2023-09-17T21:02:23.414Z,6.65
2023-09-17T21:04:56.214Z,7.40
2023-09-17T21:07:22.797Z,6.65
2023-09-17T21:09:49.695Z,5.68
2023-09-17T21:12:16.214Z,6.45
2023-09-17T21:14:43.051Z,6.38
2023-09-17T21:17:09.478Z,5.63
2023-09-17T21:19:36.316Z,6.38
2023-09-17T21:22:03.179Z,7.50
2023-09-17T21:24:29.808Z,6.65
2023-09-17T21:26:56.624Z,7.85
2023-09-17T21:29:23.332Z,6.47
2023-09-17T21:31:49.821Z,6.55
2023-09-17T21:34:16.447Z,10.40
2023-09-17T21:36:42.862Z,10.73
2023-09-17T21:39:09.236Z,8.88
2023-09-17T21:41:35.949Z,7.25
2023-09-17T21:44:02.905Z,5.50
2023-09-17T21:46:29.766Z,8.65
2023-09-17T21:48:56.817Z,6.03
2023-09-17T21:51:23.773Z,5.30
2023-09-17T21:53:50.615Z,6.97
2023-09-17T21:56:17.571Z,5.97
2023-09-17T21:58:44.439Z,8.93
2023-09-17T22:01:11.344Z,11.30
2023-09-17T22:03:38.487Z,7.05
2023-09-17T22:06:05.242Z,7.20
2023-09-17T22:08:32.221Z,8.70
2023-09-17T22:10:59.123Z,8.95
2023-09-17T22:13:26.178Z,12.02
2023-09-17T22:15:53.188Z,9.55
2023-09-17T22:18:20.260Z,8.20
2023-09-17T22:20:47.159Z,7.35
2023-09-17T22:23:14.227Z,6.68
2023-09-17T22:25:41.007Z,6.82
2023-09-17T22:28:07.822Z,8.82
2023-09-17T22:30:34.627Z,7.43
2023-09-17T22:33:01.506Z,8.45
2023-09-17T22:35:28.385Z,7.32
2023-09-17T22:37:55.602Z,7.80
2023-09-17T22:40:22.345Z,7.50
2023-09-17T22:42:48.718Z,9.93
2023-09-17T22:45:15.461Z,6.95
2023-09-17T22:47:42.472Z,8.73
2023-09-17T22:50:09.518Z,9.15
2023-09-17T22:52:36.284Z,8.00
2023-09-17T22:55:03.251Z,7.57
2023-09-17T22:57:30.169Z,11.15
2023-09-17T22:59:56.927Z,8.30
2023-09-17T23:02:23.884Z,9.95
2023-09-17T23:04:50.658Z,8.07
2023-09-17T23:07:17.177Z,8.00
2023-09-17T23:09:43.652Z,8.18
2023-09-17T23:12:10.355Z,7.93
2023-09-17T23:14:37.316Z,7.85
2023-09-17T23:17:04.220Z,7.82
2023-09-17T23:19:30.600Z,8.65
2023-09-17T23:21:56.951Z,8.95
2023-09-17T23:24:23.295Z,8.18
2023-09-17T23:26:50.299Z,8.20
2023-09-17T23:29:17.179Z,7.18
2023-09-17T23:31:44.042Z,7.05
2023-09-17T23:34:11.282Z,10.75
2023-09-17T23:36:38.353Z,7.90
2023-09-17T23:39:05.163Z,9.18
2023-09-17T23:41:31.691Z,8.55
2023-09-17T23:43:58.109Z,14.05
2023-09-17T23:46:24.862Z,8.20
2023-09-17T23:48:52.567Z,8.82
2023-09-17T23:51:19.132Z,7.88
2023-09-17T23:53:45.754Z,8.18
2023-09-17T23:56:12.343Z,13.00
2023-09-17T23:58:38.839Z,9.45
